RAAF Base Pearce
YPEA : now visible

Airfield :











YOU CAN JOIN US ON...

 
LOGIN :

Register | Disclaimer

   EN    FR    IT 

 









Legend :    VFR   Marginal VFR   IFR   Intensive IFR   Very Intensive IFR
Visi :
Ceiling :
>= 8 km
>= 3000ft
5 to 8 km
1000 to 3000 ft
1500m to 5 km
500 to 1000 ft
800 to 1500m
200 to 500 ft
< 800m
< 200 ft
Symbols :   Thunderstorms  Fog  Heavy snow  Heavy precipitations  Wind > 20 kt






- Airport Elevation : 149 ft


YPEA - RAAF Base Pearce

CURRENT METAR :
  • 270900Z AUTO 22014KT 9999 // BKN068 20/11 Q1014

EXPIRED METARs :
  • 270830Z AUTO 24015KT 9999 // SCT040 BKN066 21/11 Q1014
  • 270800Z AUTO 24014KT 9999 // SCT044 BKN052 21/10 Q1014
  • 270730Z AUTO 24015KT 9999 // SCT042 SCT055 SCT064 23/11 Q1014
  • 270700Z AUTO 23015KT 9999 // SCT044 SCT055 22/10 Q1014
  • 270630Z AUTO 23014KT 9999 // SCT044 22/09 Q1014
  • 270600Z AUTO 23016KT 9999 // SCT050 SCT060 23/10 Q1014

TAF TAF YPEA
Valid from the 27 at 06:00 until the 28 at 00:00 UTC


270518Z 2706/2800 23015KT CAVOK
FM271000 21012KT 9999 BKN030
FM271700 17005KT 9999 SCT040
YMMM FIR / Oceania



MET'MAP, your aeronautical weather chart ! - Copyright ORBIFLY December 2007 - Disclaimer

ORBIFLY MET'MAP TEAM :

Programming & Development : Alexandra Zaïnal
Concept & original design : Baudouin d'Aumeries
Assistance for programming : Marc-Olivier Méhu
Technical & hardware support : Manuel Goepfert

Contact : metmap@orbifly.com




SOURCES & CREDITS :

   NOAA       Earth
Advisory